createdAt,value
2023-02-03T00:01:36.101Z,0.37
2023-02-03T00:04:02.843Z,0.41
2023-02-03T00:06:32.226Z,0.41
2023-02-03T00:09:01.806Z,0.47
2023-02-03T00:11:31.811Z,0.48
2023-02-03T00:13:58.528Z,0.51
2023-02-03T00:16:25.245Z,0.52
2023-02-03T00:18:51.979Z,0.51
2023-02-03T00:21:18.715Z,0.51
2023-02-03T00:23:45.554Z,0.54
2023-02-03T00:26:15.337Z,0.55
2023-02-03T00:28:42.079Z,0.56
2023-02-03T00:31:23.709Z,0.53
2023-02-03T00:33:57.723Z,0.54
2023-02-03T00:36:25.612Z,0.61
2023-02-03T00:38:52.287Z,0.62
2023-02-03T00:41:20.724Z,0.54
2023-02-03T00:43:48.043Z,0.57
2023-02-03T00:46:15.349Z,0.61
2023-02-03T00:48:42.072Z,0.68
2023-02-03T00:51:08.928Z,0.67
2023-02-03T00:53:35.758Z,0.62
2023-02-03T00:56:02.494Z,0.72
2023-02-03T00:58:29.343Z,0.76
2023-02-03T01:00:57.348Z,0.78
2023-02-03T01:03:24.279Z,0.83
2023-02-03T01:05:51.123Z,0.82
2023-02-03T01:08:17.862Z,0.79
2023-02-03T01:10:44.695Z,0.79
2023-02-03T01:13:11.425Z,0.79
2023-02-03T01:15:38.197Z,0.84
2023-02-03T01:18:05.092Z,0.90
2023-02-03T01:20:31.782Z,0.97
2023-02-03T01:22:58.463Z,1.01
2023-02-03T01:25:25.191Z,1.04
2023-02-03T01:27:52.033Z,1.07
2023-02-03T01:30:19.042Z,1.08
2023-02-03T01:32:45.728Z,1.13
2023-02-03T01:35:12.513Z,1.19
2023-02-03T01:37:39.300Z,1.17
2023-02-03T01:40:06.580Z,1.19
2023-02-03T01:42:34.356Z,1.19
2023-02-03T01:45:01.367Z,1.25
2023-02-03T01:47:42.894Z,1.15
2023-02-03T01:50:15.756Z,1.13
2023-02-03T01:52:45.505Z,1.18
2023-02-03T01:55:17.605Z,1.24
2023-02-03T01:57:59.966Z,1.26
2023-02-03T02:00:27.582Z,1.27
2023-02-03T02:02:55.089Z,1.23
2023-02-03T02:05:34.170Z,1.21
2023-02-03T02:08:03.265Z,1.21
2023-02-03T02:10:31.317Z,1.19
2023-02-03T02:12:58.636Z,1.28
2023-02-03T02:15:39.537Z,1.25
2023-02-03T02:18:13.959Z,1.31
2023-02-03T02:21:18.365Z,1.33
2023-02-03T02:23:44.999Z,1.33
2023-02-03T02:26:42.222Z,1.34
2023-02-03T02:29:30.389Z,1.32
2023-02-03T02:32:07.075Z,1.29
2023-02-03T02:34:50.642Z,1.34
2023-02-03T02:37:43.244Z,1.31
2023-02-03T02:40:34.464Z,1.33
2023-02-03T02:43:18.741Z,1.32
2023-02-03T02:45:51.239Z,1.31
2023-02-03T02:48:23.124Z,1.24
2023-02-03T02:50:53.963Z,1.25
2023-02-03T02:53:25.143Z,1.22
2023-02-03T02:55:53.831Z,1.23
2023-02-03T02:58:22.564Z,1.26
2023-02-03T03:00:49.275Z,1.23
2023-02-03T03:03:24.665Z,1.19
2023-02-03T03:05:56.277Z,1.18
2023-02-03T03:08:31.701Z,1.16
2023-02-03T03:11:01.471Z,1.14
2023-02-03T03:13:34.334Z,1.14
2023-02-03T03:16:05.411Z,1.17
2023-02-03T03:18:39.688Z,1.17
2023-02-03T03:21:07.399Z,1.16
2023-02-03T03:23:40.331Z,1.16
2023-02-03T03:26:13.634Z,1.19
2023-02-03T03:28:49.661Z,1.23
2023-02-03T03:31:20.840Z,1.23
2023-02-03T03:33:48.573Z,1.20
2023-02-03T03:36:17.951Z,1.16
2023-02-03T03:38:55.768Z,1.19
2023-02-03T03:41:29.803Z,1.25
2023-02-03T03:44:00.315Z,1.22
2023-02-03T03:46:32.038Z,1.19
2023-02-03T03:49:08.348Z,1.19
2023-02-03T03:51:42.112Z,1.13
2023-02-03T03:54:12.000Z,1.23
2023-02-03T03:57:17.089Z,1.22
2023-02-03T03:59:47.387Z,1.22
2023-02-03T04:02:16.207Z,1.18
2023-02-03T04:04:44.875Z,1.19
2023-02-03T04:07:13.849Z,1.15
2023-02-03T04:09:42.999Z,1.24
2023-02-03T04:12:23.706Z,1.31
2023-02-03T04:14:50.645Z,1.33
2023-02-03T04:17:20.405Z,1.27
2023-02-03T04:19:48.425Z,1.35
2023-02-03T04:22:15.143Z,1.37
2023-02-03T04:24:41.796Z,1.37
2023-02-03T04:27:08.522Z,1.43
2023-02-03T04:29:35.244Z,1.37
2023-02-03T04:32:02.096Z,1.47
2023-02-03T04:34:28.905Z,1.45
2023-02-03T04:36:55.648Z,1.49
2023-02-03T04:39:22.725Z,1.47
2023-02-03T04:41:49.575Z,1.46
2023-02-03T04:44:16.515Z,1.47
2023-02-03T04:46:43.377Z,1.39
2023-02-03T04:49:11.846Z,1.43
2023-02-03T04:51:38.925Z,1.48
2023-02-03T04:54:05.743Z,1.42
2023-02-03T04:56:32.695Z,1.45
2023-02-03T04:58:59.606Z,1.45
2023-02-03T05:01:26.475Z,1.52
2023-02-03T05:03:53.488Z,1.36
2023-02-03T05:06:28.986Z,1.40
2023-02-03T05:08:55.893Z,1.35
2023-02-03T05:11:23.172Z,1.37
2023-02-03T05:13:50.299Z,1.35
2023-02-03T05:16:17.475Z,1.32
2023-02-03T05:18:44.530Z,1.31
2023-02-03T05:21:11.224Z,1.32
2023-02-03T05:23:38.253Z,1.33
2023-02-03T05:26:05.257Z,1.32
2023-02-03T05:28:32.132Z,1.35
2023-02-03T05:31:00.153Z,1.37
2023-02-03T05:33:26.751Z,1.40
2023-02-03T05:35:53.539Z,1.37
2023-02-03T05:38:20.337Z,1.36
2023-02-03T05:41:08.909Z,1.37
2023-02-03T05:43:36.170Z,1.43
2023-02-03T05:46:05.086Z,1.45
2023-02-03T05:48:32.471Z,1.41
2023-02-03T05:50:59.500Z,1.41
2023-02-03T05:53:27.339Z,1.41
2023-02-03T05:55:54.529Z,1.32
2023-02-03T05:58:21.312Z,1.37
2023-02-03T06:00:48.261Z,1.37
2023-02-03T06:03:15.915Z,1.38
2023-02-03T06:05:44.330Z,1.44
2023-02-03T06:08:11.407Z,1.48
2023-02-03T06:10:38.174Z,1.39
2023-02-03T06:13:13.677Z,1.42
2023-02-03T06:15:40.907Z,1.38
2023-02-03T06:18:08.238Z,1.36
2023-02-03T06:20:35.292Z,1.36
2023-02-03T06:23:02.138Z,1.31
2023-02-03T06:25:29.084Z,1.34
2023-02-03T06:27:55.970Z,1.39
2023-02-03T06:30:24.026Z,1.35
2023-02-03T06:32:51.024Z,1.37
2023-02-03T06:35:18.961Z,1.30
2023-02-03T06:37:45.795Z,1.27
2023-02-03T06:40:13.216Z,1.27
2023-02-03T06:42:40.224Z,1.33
2023-02-03T06:45:08.476Z,1.27
2023-02-03T06:47:35.955Z,1.26
2023-02-03T06:50:02.889Z,1.36
2023-02-03T06:52:29.631Z,1.34
2023-02-03T06:54:56.575Z,1.33
2023-02-03T06:57:23.471Z,1.34
2023-02-03T06:59:50.434Z,1.41
2023-02-03T07:02:17.206Z,1.37
2023-02-03T07:04:45.318Z,1.37
2023-02-03T07:07:13.152Z,1.30
2023-02-03T07:09:40.335Z,1.39
2023-02-03T07:12:08.592Z,1.36
2023-02-03T07:14:36.160Z,1.37
2023-02-03T07:17:03.444Z,1.41
2023-02-03T07:19:30.170Z,1.46
2023-02-03T07:21:57.039Z,1.44
2023-02-03T07:24:23.765Z,1.53
2023-02-03T07:26:50.424Z,1.50
2023-02-03T07:29:17.074Z,1.59
2023-02-03T07:31:43.850Z,1.58
2023-02-03T07:34:10.801Z,1.66
2023-02-03T07:36:37.480Z,1.74
2023-02-03T07:39:04.259Z,1.76
2023-02-03T07:41:30.957Z,1.82
2023-02-03T07:43:57.638Z,1.87
2023-02-03T07:46:24.604Z,1.90
2023-02-03T07:48:51.343Z,1.83
2023-02-03T07:51:18.180Z,1.79
2023-02-03T07:53:45.523Z,1.87
2023-02-03T07:56:12.292Z,1.88
2023-02-03T07:58:39.108Z,1.90
2023-02-03T08:01:15.555Z,1.89
2023-02-03T08:03:42.826Z,1.95
2023-02-03T08:06:09.615Z,1.92
2023-02-03T08:08:36.585Z,1.90
2023-02-03T08:11:03.722Z,1.94
2023-02-03T08:13:30.474Z,1.98
2023-02-03T08:15:57.143Z,1.95
2023-02-03T08:18:23.885Z,1.93
2023-02-03T08:20:50.754Z,2.04
2023-02-03T08:23:17.504Z,2.10
2023-02-03T08:25:44.194Z,2.17
2023-02-03T08:28:10.977Z,2.18
2023-02-03T08:30:38.406Z,2.25
2023-02-03T08:33:05.105Z,2.20
2023-02-03T08:35:32.217Z,2.12
2023-02-03T08:37:58.884Z,2.09
2023-02-03T08:40:26.119Z,2.07
2023-02-03T08:42:53.435Z,2.10
2023-02-03T08:45:20.322Z,2.10
2023-02-03T08:47:47.031Z,2.03
2023-02-03T08:50:13.945Z,2.00
2023-02-03T08:52:40.634Z,2.05
2023-02-03T08:55:07.664Z,2.14
2023-02-03T08:57:36.122Z,2.21
2023-02-03T09:00:04.481Z,2.35
2023-02-03T09:02:31.279Z,2.39
2023-02-03T09:04:58.326Z,2.36
2023-02-03T09:07:25.486Z,2.54
2023-02-03T09:09:52.289Z,2.57
2023-02-03T09:12:19.058Z,2.50
2023-02-03T09:14:45.814Z,2.49
2023-02-03T09:17:12.588Z,2.56
2023-02-03T09:19:39.496Z,2.63
2023-02-03T09:22:06.252Z,2.65
2023-02-03T09:24:33.200Z,2.65
2023-02-03T09:27:01.583Z,2.72
2023-02-03T09:29:28.679Z,2.85
2023-02-03T09:31:55.516Z,2.85
2023-02-03T09:34:22.279Z,2.90
2023-02-03T09:36:49.430Z,2.89
2023-02-03T09:39:16.286Z,2.92
2023-02-03T09:41:48.795Z,2.95
2023-02-03T09:44:33.448Z,3.00
2023-02-03T09:47:12.317Z,3.00
2023-02-03T09:49:44.017Z,2.98
2023-02-03T09:52:19.950Z,3.00
2023-02-03T09:55:05.951Z,3.00
2023-02-03T09:57:48.787Z,3.00
2023-02-03T10:00:28.384Z,3.03
2023-02-03T10:03:32.601Z,2.99
2023-02-03T10:05:59.196Z,3.01
2023-02-03T10:08:54.794Z,3.03
2023-02-03T10:11:39.781Z,3.05
2023-02-03T10:14:56.683Z,3.13
2023-02-03T10:17:40.843Z,3.13
2023-02-03T10:21:06.057Z,3.20
2023-02-03T10:23:36.894Z,3.14
2023-02-03T10:26:10.674Z,3.23
2023-02-03T10:28:48.223Z,3.24
2023-02-03T10:31:19.783Z,3.30
2023-02-03T10:33:48.229Z,3.26
2023-02-03T10:36:19.633Z,3.30
2023-02-03T10:38:51.940Z,3.38
2023-02-03T10:41:21.466Z,3.56
2023-02-03T10:43:54.256Z,3.69
2023-02-03T10:46:27.379Z,3.80
2023-02-03T10:48:54.439Z,3.81
2023-02-03T10:51:32.921Z,3.94
2023-02-03T10:54:00.797Z,3.96
2023-02-03T10:56:32.719Z,4.02
2023-02-03T10:59:00.884Z,3.97
2023-02-03T11:01:49.384Z,3.99
2023-02-03T11:04:33.454Z,4.01
2023-02-03T11:07:08.786Z,4.14
2023-02-03T11:09:38.144Z,4.35
2023-02-03T11:12:12.131Z,4.42
2023-02-03T11:14:41.609Z,4.44
2023-02-03T11:17:09.778Z,4.62
2023-02-03T11:19:39.355Z,4.72
2023-02-03T11:22:06.838Z,4.62
2023-02-03T11:24:39.456Z,4.37
2023-02-03T11:27:13.244Z,4.32
2023-02-03T11:29:49.437Z,4.18
2023-02-03T11:32:48.343Z,4.04
2023-02-03T11:35:28.281Z,4.00
2023-02-03T11:38:01.748Z,3.98
2023-02-03T11:40:34.098Z,4.08
2023-02-03T11:43:14.646Z,4.16
2023-02-03T11:45:44.755Z,4.16
2023-02-03T11:48:11.382Z,4.26
2023-02-03T11:51:16.719Z,4.29
2023-02-03T11:54:17.232Z,4.26
2023-02-03T11:56:46.789Z,4.15
2023-02-03T11:59:22.349Z,3.97
2023-02-03T12:01:48.925Z,3.92
2023-02-03T12:04:34.460Z,3.84
2023-02-03T12:07:17.433Z,3.76
2023-02-03T12:10:22.438Z,3.87
2023-02-03T12:13:12.326Z,3.85
2023-02-03T12:15:59.832Z,3.78
2023-02-03T12:18:29.400Z,3.81
2023-02-03T12:21:33.961Z,3.79
2023-02-03T12:24:25.115Z,3.77
2023-02-03T12:27:21.178Z,3.77
2023-02-03T12:30:15.887Z,3.77
2023-02-03T12:32:45.577Z,3.79
2023-02-03T12:35:24.468Z,3.82
2023-02-03T12:38:07.501Z,3.83
2023-02-03T12:41:16.052Z,3.89
2023-02-03T12:43:53.327Z,3.85
2023-02-03T12:46:45.266Z,3.83
2023-02-03T12:49:26.967Z,3.88
2023-02-03T12:52:05.425Z,3.83
2023-02-03T12:54:49.215Z,3.85
2023-02-03T12:57:30.178Z,3.88
2023-02-03T13:00:11.274Z,3.99
2023-02-03T13:02:51.431Z,3.96
2023-02-03T13:05:21.935Z,3.90
2023-02-03T13:07:59.992Z,3.79
2023-02-03T13:10:44.021Z,3.73
2023-02-03T13:13:15.360Z,3.66
2023-02-03T13:15:48.110Z,3.65
2023-02-03T13:18:30.064Z,3.69
2023-02-03T13:20:57.133Z,3.63
2023-02-03T13:23:24.909Z,3.61
2023-02-03T13:25:54.359Z,3.66
2023-02-03T13:28:53.398Z,3.76
2023-02-03T13:31:37.987Z,3.78
2023-02-03T13:34:32.715Z,3.93
2023-02-03T13:37:27.909Z,4.02
2023-02-03T13:40:22.202Z,4.18
2023-02-03T13:42:55.450Z,4.25
2023-02-03T13:45:40.778Z,4.33
2023-02-03T13:48:14.843Z,4.30
2023-02-03T13:50:41.889Z,4.31
2023-02-03T13:53:15.266Z,4.33
2023-02-03T13:56:02.676Z,4.32
2023-02-03T13:58:39.274Z,4.22
2023-02-03T14:01:51.127Z,4.06
2023-02-03T14:04:23.683Z,3.95
2023-02-03T14:06:52.519Z,3.90
2023-02-03T14:09:23.666Z,3.88
2023-02-03T14:11:52.635Z,3.84
2023-02-03T14:14:22.095Z,3.84
2023-02-03T14:16:55.235Z,3.86
2023-02-03T14:19:21.991Z,3.84
2023-02-03T14:21:55.651Z,3.80
2023-02-03T14:24:23.293Z,3.82
2023-02-03T14:26:53.011Z,3.67
2023-02-03T14:29:30.618Z,3.65
2023-02-03T14:32:06.372Z,3.56
2023-02-03T14:34:40.608Z,3.48
2023-02-03T14:37:39.750Z,3.55
2023-02-03T14:40:21.414Z,3.52
2023-02-03T14:43:12.319Z,3.48
2023-02-03T14:45:56.278Z,3.46
2023-02-03T14:49:01.235Z,3.42
2023-02-03T14:51:33.700Z,3.37
2023-02-03T14:54:29.766Z,3.39
2023-02-03T14:57:19.782Z,3.38
2023-02-03T15:00:23.041Z,3.41
2023-02-03T15:03:25.740Z,3.40
2023-02-03T15:05:58.656Z,3.39
2023-02-03T15:08:53.155Z,3.37
2023-02-03T15:11:27.729Z,3.30
2023-02-03T15:13:56.325Z,3.26
2023-02-03T15:16:25.371Z,3.22
2023-02-03T15:19:07.417Z,3.18
2023-02-03T15:21:42.032Z,3.13
2023-02-03T15:24:19.182Z,3.06
2023-02-03T15:26:54.394Z,3.03
2023-02-03T15:29:33.766Z,2.94
2023-02-03T15:32:00.457Z,2.86
2023-02-03T15:34:36.189Z,2.81
2023-02-03T15:37:08.895Z,2.80
2023-02-03T15:39:47.734Z,2.80
2023-02-03T15:42:39.796Z,2.76
2023-02-03T15:45:25.641Z,2.79
2023-02-03T15:48:06.786Z,2.69
2023-02-03T15:50:40.739Z,2.71
2023-02-03T15:53:20.263Z,2.61
2023-02-03T15:55:50.623Z,2.63
2023-02-03T15:58:24.940Z,2.62
2023-02-03T16:00:58.332Z,2.63
2023-02-03T16:03:39.850Z,2.51
2023-02-03T16:06:30.637Z,2.41
2023-02-03T16:08:59.761Z,2.37
2023-02-03T16:11:34.179Z,2.34
2023-02-03T16:14:07.171Z,2.18
2023-02-03T16:16:49.349Z,2.12
2023-02-03T16:19:23.234Z,2.03
2023-02-03T16:21:49.883Z,1.90
2023-02-03T16:24:41.039Z,1.72
2023-02-03T16:27:28.022Z,1.61
2023-02-03T16:30:33.128Z,1.52
2023-02-03T16:33:27.588Z,1.36
2023-02-03T16:36:20.577Z,1.24
2023-02-03T16:39:09.650Z,1.18
2023-02-03T16:41:56.259Z,1.20
2023-02-03T16:44:41.573Z,1.10
2023-02-03T16:47:44.036Z,1.13
2023-02-03T16:50:38.958Z,1.06
2023-02-03T16:53:12.848Z,0.94
2023-02-03T16:55:40.298Z,0.92
2023-02-03T16:58:07.151Z,0.89
2023-02-03T17:00:34.026Z,0.77
2023-02-03T17:03:04.574Z,0.80
2023-02-03T17:05:31.735Z,0.73
2023-02-03T17:07:58.873Z,0.70
2023-02-03T17:10:27.946Z,0.64
2023-02-03T17:12:54.718Z,0.69
2023-02-03T17:15:21.825Z,0.67
2023-02-03T17:17:48.678Z,0.60
2023-02-03T17:20:15.754Z,0.63
2023-02-03T17:22:42.868Z,0.59
2023-02-03T17:25:09.850Z,0.50
2023-02-03T17:27:36.566Z,0.43
2023-02-03T17:30:04.529Z,0.44
2023-02-03T17:32:31.256Z,0.47
2023-02-03T17:34:58.205Z,0.44
2023-02-03T17:37:25.138Z,0.35
2023-02-03T17:53:33.799Z,0.14
2023-02-03T17:56:09.490Z,0.16
2023-02-03T17:58:36.656Z,0.07
2023-02-03T18:01:19.100Z,0.00
2023-02-03T18:03:48.299Z,-0.18
2023-02-03T18:06:20.790Z,-0.08
2023-02-03T18:08:49.985Z,-0.03
2023-02-03T18:11:19.022Z,-0.17
2023-02-03T18:13:48.410Z,-0.20
2023-02-03T18:16:23.031Z,-0.23
2023-02-03T18:18:52.083Z,-0.33
2023-02-03T18:21:20.744Z,-0.36
2023-02-03T18:23:49.456Z,-0.44
2023-02-03T18:26:16.375Z,-0.42
2023-02-03T18:28:43.212Z,-0.42
2023-02-03T18:31:16.010Z,-0.49
2023-02-03T18:33:44.432Z,-0.51
2023-02-03T18:36:12.914Z,-0.60
2023-02-03T18:38:41.601Z,-0.59
2023-02-03T18:41:13.750Z,-0.61
2023-02-03T18:43:41.110Z,-0.60
2023-02-03T18:46:13.946Z,-0.65
2023-02-03T18:48:40.828Z,-0.53
2023-02-03T18:51:09.599Z,-0.67
2023-02-03T18:53:37.301Z,-0.76
2023-02-03T18:56:08.854Z,-0.84
2023-02-03T18:58:37.589Z,-0.79
2023-02-03T19:01:04.616Z,-0.79
2023-02-03T19:03:31.604Z,-0.80
2023-02-03T19:05:58.397Z,-0.88
2023-02-03T19:08:25.174Z,-0.92
2023-02-03T19:10:53.690Z,-0.86
2023-02-03T19:13:20.950Z,-0.84
2023-02-03T19:15:49.731Z,-0.90
2023-02-03T19:18:16.688Z,-0.92
2023-02-03T19:20:44.617Z,-0.98
2023-02-03T19:23:12.089Z,-1.03
2023-02-03T19:25:39.228Z,-1.03
2023-02-03T19:28:14.193Z,-1.05
2023-02-03T19:30:44.752Z,-1.11
2023-02-03T19:33:12.014Z,-1.10
2023-02-03T19:35:38.897Z,-1.06
2023-02-03T19:38:05.731Z,-0.95
2023-02-03T19:40:32.670Z,-0.92
2023-02-03T19:42:59.758Z,-0.90
2023-02-03T19:45:27.246Z,-0.94
2023-02-03T19:47:54.050Z,-0.95
2023-02-03T19:50:20.984Z,-0.87
2023-02-03T19:52:49.175Z,-0.85
2023-02-03T19:55:16.511Z,-0.70
2023-02-03T19:57:43.282Z,-0.75
2023-02-03T20:00:10.672Z,-0.73
2023-02-03T20:02:38.139Z,-0.62
2023-02-03T20:05:05.118Z,-0.60
2023-02-03T20:07:33.877Z,-0.61
2023-02-03T20:10:01.180Z,-0.62
2023-02-03T20:12:28.153Z,-0.58
2023-02-03T20:14:56.102Z,-0.57
2023-02-03T20:17:22.756Z,-0.55
2023-02-03T20:19:49.613Z,-0.47
2023-02-03T20:22:16.453Z,-0.48
2023-02-03T20:24:43.253Z,-0.38
2023-02-03T20:27:10.176Z,-0.50
2023-02-03T20:29:36.894Z,-0.53
2023-02-03T20:32:06.887Z,-0.50
2023-02-03T20:34:33.934Z,-0.48
2023-02-03T20:37:01.190Z,-0.37
2023-02-03T20:39:28.426Z,-0.41
2023-02-03T20:41:55.658Z,-0.42
2023-02-03T20:44:22.605Z,-0.41
2023-02-03T20:46:49.548Z,-0.35
2023-02-03T20:49:18.397Z,-0.30
2023-02-03T20:51:45.572Z,-0.26
2023-02-03T20:54:21.696Z,-0.16
2023-02-03T20:56:49.011Z,-0.03
2023-02-03T20:59:20.044Z,-0.05
2023-02-03T21:01:47.872Z,-0.08
2023-02-03T21:04:34.891Z,0.00
2023-02-03T21:07:13.895Z,0.04
2023-02-03T21:09:40.734Z,-0.03
2023-02-03T21:12:12.707Z,0.00
2023-02-03T21:14:43.516Z,0.00
2023-02-03T21:17:28.851Z,0.12
2023-02-03T21:19:55.655Z,-0.01
2023-02-03T21:22:25.398Z,-0.03
2023-02-03T21:24:57.538Z,0.01
2023-02-03T21:27:31.396Z,0.05
2023-02-03T21:29:59.876Z,0.01
2023-02-03T21:32:40.179Z,0.01
2023-02-03T21:35:31.208Z,0.10
2023-02-03T21:38:02.988Z,0.08
2023-02-03T21:40:34.866Z,0.06
2023-02-03T21:43:03.416Z,0.11
2023-02-03T21:45:43.693Z,0.15
2023-02-03T21:48:40.340Z,0.18
2023-02-03T21:51:28.027Z,0.14
2023-02-03T21:53:56.311Z,0.20
2023-02-03T21:56:42.755Z,0.14
2023-02-03T21:59:18.139Z,0.16
2023-02-03T22:01:45.250Z,0.14
2023-02-03T22:04:12.127Z,0.21
2023-02-03T22:06:43.687Z,0.19
2023-02-03T22:09:15.726Z,0.27
2023-02-03T22:11:42.481Z,0.21
2023-02-03T22:14:09.327Z,0.26
2023-02-03T22:16:36.212Z,0.32
2023-02-03T22:19:03.054Z,0.34
2023-02-03T22:21:29.877Z,0.28
2023-02-03T22:23:56.846Z,0.35
2023-02-03T22:26:23.969Z,0.35
2023-02-03T22:28:50.722Z,0.35
2023-02-03T22:31:17.975Z,0.31
2023-02-03T22:33:44.926Z,0.19
2023-02-03T22:36:12.815Z,0.23
2023-02-03T22:38:41.371Z,0.01
2023-02-03T22:41:12.040Z,0.08
2023-02-03T22:43:39.840Z,0.05
2023-02-03T22:46:07.535Z,0.06
2023-02-03T22:48:34.604Z,0.03
2023-02-03T22:51:01.826Z,-0.01
2023-02-03T22:53:29.499Z,-0.04
2023-02-03T22:55:56.314Z,0.01
2023-02-03T22:58:23.155Z,0.08
2023-02-03T23:00:49.935Z,0.14
2023-02-03T23:03:17.006Z,0.07
2023-02-03T23:05:43.942Z,0.17
2023-02-03T23:08:10.805Z,0.14
2023-02-03T23:10:37.618Z,0.22
2023-02-03T23:13:04.370Z,0.20
2023-02-03T23:15:31.154Z,0.19
2023-02-03T23:17:58.526Z,0.21
2023-02-03T23:20:25.374Z,0.35
2023-02-03T23:22:52.081Z,0.26
2023-02-03T23:25:18.826Z,0.27
2023-02-03T23:27:45.628Z,0.30
2023-02-03T23:30:13.022Z,0.33
2023-02-03T23:32:39.870Z,0.42
2023-02-03T23:35:25.782Z,0.46
2023-02-03T23:37:52.616Z,0.46
2023-02-03T23:40:19.694Z,0.42
2023-02-03T23:42:46.489Z,0.50
2023-02-03T23:45:13.345Z,0.44
2023-02-03T23:47:41.978Z,0.48
2023-02-03T23:50:10.824Z,0.49
2023-02-03T23:52:37.938Z,0.50
2023-02-03T23:55:10.532Z,0.54
2023-02-03T23:57:37.208Z,0.56
